sensor_id;sensor_type;location;lat;lon;timestamp;temperature;humidity
4530;DHT22;2277;51.626;7.516;2022-10-04T00:02:28;13.10;99.90
4530;DHT22;2277;51.626;7.516;2022-10-04T00:05:07;13.10;99.90
4530;DHT22;2277;51.626;7.516;2022-10-04T00:07:45;13.00;99.90
4530;DHT22;2277;51.626;7.516;2022-10-04T00:10:43;13.00;99.90
4530;DHT22;2277;51.626;7.516;2022-10-04T00:13:21;13.00;99.90
4530;DHT22;2277;51.626;7.516;2022-10-04T00:15:48;12.90;99.90
4530;DHT22;2277;51.626;7.516;2022-10-04T00:18:26;12.90;99.90
4530;DHT22;2277;51.626;7.516;2022-10-04T00:28:50;12.80;99.90
4530;DHT22;2277;51.626;7.516;2022-10-04T00:31:26;12.80;99.90
4530;DHT22;2277;51.626;7.516;2022-10-04T00:44:46;12.70;99.90
4530;DHT22;2277;51.626;7.516;2022-10-04T00:49:48;12.50;99.90
4530;DHT22;2277;51.626;7.516;2022-10-04T00:52:18;12.50;99.90
4530;DHT22;2277;51.626;7.516;2022-10-04T00:54:51;12.50;99.90
4530;DHT22;2277;51.626;7.516;2022-10-04T00:57:21;12.50;99.90
4530;DHT22;2277;51.626;7.516;2022-10-04T00:59:52;12.60;99.90
4530;DHT22;2277;51.626;7.516;2022-10-04T01:07:18;12.60;99.90
4530;DHT22;2277;51.626;7.516;2022-10-04T01:10:04;12.50;99.90
4530;DHT22;2277;51.626;7.516;2022-10-04T01:12:38;12.60;99.90
4530;DHT22;2277;51.626;7.516;2022-10-04T01:15:40;12.60;99.90
4530;DHT22;2277;51.626;7.516;2022-10-04T01:31:42;12.70;99.90
4530;DHT22;2277;51.626;7.516;2022-10-04T01:34:08;12.70;99.90
4530;DHT22;2277;51.626;7.516;2022-10-04T01:36:37;12.70;99.90
4530;DHT22;2277;51.626;7.516;2022-10-04T01:39:05;12.70;99.90
4530;DHT22;2277;51.626;7.516;2022-10-04T01:41:44;12.70;99.90
4530;DHT22;2277;51.626;7.516;2022-10-04T01:44:24;12.70;99.90
4530;DHT22;2277;51.626;7.516;2022-10-04T01:46:53;12.70;99.90
4530;DHT22;2277;51.626;7.516;2022-10-04T01:49:30;12.70;99.90
4530;DHT22;2277;51.626;7.516;2022-10-04T01:52:06;12.80;99.90
4530;DHT22;2277;51.626;7.516;2022-10-04T01:54:44;12.80;99.90
4530;DHT22;2277;51.626;7.516;2022-10-04T02:00:13;12.70;99.90
4530;DHT22;2277;51.626;7.516;2022-10-04T02:02:40;12.70;99.90
4530;DHT22;2277;51.626;7.516;2022-10-04T02:05:12;12.70;99.90
4530;DHT22;2277;51.626;7.516;2022-10-04T02:07:40;12.60;99.90
4530;DHT22;2277;51.626;7.516;2022-10-04T02:10:10;12.60;99.90
4530;DHT22;2277;51.626;7.516;2022-10-04T02:12:46;12.60;99.90
4530;DHT22;2277;51.626;7.516;2022-10-04T02:15:13;12.60;99.90
4530;DHT22;2277;51.626;7.516;2022-10-04T02:17:41;12.60;99.90
4530;DHT22;2277;51.626;7.516;2022-10-04T02:20:14;12.70;99.90
4530;DHT22;2277;51.626;7.516;2022-10-04T02:22:41;12.70;99.90
4530;DHT22;2277;51.626;7.516;2022-10-04T02:25:08;12.70;99.90
4530;DHT22;2277;51.626;7.516;2022-10-04T02:27:34;12.70;99.90
4530;DHT22;2277;51.626;7.516;2022-10-04T02:30:05;12.70;99.90
4530;DHT22;2277;51.626;7.516;2022-10-04T02:32:32;12.70;99.90
4530;DHT22;2277;51.626;7.516;2022-10-04T02:35:17;12.70;99.90
4530;DHT22;2277;51.626;7.516;2022-10-04T02:37:45;12.70;99.90
4530;DHT22;2277;51.626;7.516;2022-10-04T02:40:15;12.70;99.90
4530;DHT22;2277;51.626;7.516;2022-10-04T02:43:02;12.70;99.90
4530;DHT22;2277;51.626;7.516;2022-10-04T02:48:05;12.70;99.90
4530;DHT22;2277;51.626;7.516;2022-10-04T02:50:43;12.60;99.90
4530;DHT22;2277;51.626;7.516;2022-10-04T02:53:25;12.50;99.90
4530;DHT22;2277;51.626;7.516;2022-10-04T02:55:55;12.50;99.90
4530;DHT22;2277;51.626;7.516;2022-10-04T02:58:22;12.50;99.90
4530;DHT22;2277;51.626;7.516;2022-10-04T03:00:55;12.50;99.90
4530;DHT22;2277;51.626;7.516;2022-10-04T03:03:28;12.50;99.90
4530;DHT22;2277;51.626;7.516;2022-10-04T03:06:05;12.50;99.90
4530;DHT22;2277;51.626;7.516;2022-10-04T03:08:50;12.50;99.90
4530;DHT22;2277;51.626;7.516;2022-10-04T03:11:19;12.50;99.90
4530;DHT22;2277;51.626;7.516;2022-10-04T03:13:50;12.50;99.90
4530;DHT22;2277;51.626;7.516;2022-10-04T03:16:17;12.60;99.90
4530;DHT22;2277;51.626;7.516;2022-10-04T03:18:44;12.60;99.90
4530;DHT22;2277;51.626;7.516;2022-10-04T03:21:12;12.60;99.90
4530;DHT22;2277;51.626;7.516;2022-10-04T03:23:40;12.60;99.90
4530;DHT22;2277;51.626;7.516;2022-10-04T03:28:47;12.60;99.90
4530;DHT22;2277;51.626;7.516;2022-10-04T03:31:13;12.60;99.90
4530;DHT22;2277;51.626;7.516;2022-10-04T03:33:39;12.50;99.90
4530;DHT22;2277;51.626;7.516;2022-10-04T03:36:13;12.50;99.90
4530;DHT22;2277;51.626;7.516;2022-10-04T03:38:43;12.50;99.90
4530;DHT22;2277;51.626;7.516;2022-10-04T03:41:10;12.50;99.90
4530;DHT22;2277;51.626;7.516;2022-10-04T03:43:41;12.50;99.90
4530;DHT22;2277;51.626;7.516;2022-10-04T03:46:09;12.40;99.90
4530;DHT22;2277;51.626;7.516;2022-10-04T03:48:38;12.30;99.90
4530;DHT22;2277;51.626;7.516;2022-10-04T03:51:05;12.40;99.90
4530;DHT22;2277;51.626;7.516;2022-10-04T03:53:38;12.40;99.90
4530;DHT22;2277;51.626;7.516;2022-10-04T03:56:29;12.40;99.90
4530;DHT22;2277;51.626;7.516;2022-10-04T03:58:55;12.40;99.90
4530;DHT22;2277;51.626;7.516;2022-10-04T04:09:42;12.40;99.90
4530;DHT22;2277;51.626;7.516;2022-10-04T04:12:24;12.30;99.90
4530;DHT22;2277;51.626;7.516;2022-10-04T04:14:52;12.40;99.90
4530;DHT22;2277;51.626;7.516;2022-10-04T04:19:50;12.30;99.90
4530;DHT22;2277;51.626;7.516;2022-10-04T04:22:17;12.30;99.90
4530;DHT22;2277;51.626;7.516;2022-10-04T04:24:43;12.30;99.90
4530;DHT22;2277;51.626;7.516;2022-10-04T04:27:11;12.30;99.90
4530;DHT22;2277;51.626;7.516;2022-10-04T04:29:53;12.30;99.90
4530;DHT22;2277;51.626;7.516;2022-10-04T04:32:24;12.20;99.90
4530;DHT22;2277;51.626;7.516;2022-10-04T04:35:02;12.20;99.90
4530;DHT22;2277;51.626;7.516;2022-10-04T04:37:37;12.20;99.90
4530;DHT22;2277;51.626;7.516;2022-10-04T04:40:23;12.20;99.90
4530;DHT22;2277;51.626;7.516;2022-10-04T04:42:50;12.20;99.90
4530;DHT22;2277;51.626;7.516;2022-10-04T04:45:22;12.20;99.90
4530;DHT22;2277;51.626;7.516;2022-10-04T04:47:52;12.20;99.90
4530;DHT22;2277;51.626;7.516;2022-10-04T04:50:39;12.20;99.90
4530;DHT22;2277;51.626;7.516;2022-10-04T04:53:14;12.10;99.90
4530;DHT22;2277;51.626;7.516;2022-10-04T04:55:43;12.00;99.90
4530;DHT22;2277;51.626;7.516;2022-10-04T04:58:21;11.90;99.90
4530;DHT22;2277;51.626;7.516;2022-10-04T05:01:00;12.00;99.90
4530;DHT22;2277;51.626;7.516;2022-10-04T05:03:27;11.90;99.90
4530;DHT22;2277;51.626;7.516;2022-10-04T05:05:55;11.90;99.90
4530;DHT22;2277;51.626;7.516;2022-10-04T05:08:27;11.90;99.90
4530;DHT22;2277;51.626;7.516;2022-10-04T05:13:46;11.90;99.90
4530;DHT22;2277;51.626;7.516;2022-10-04T05:16:41;11.90;99.90
4530;DHT22;2277;51.626;7.516;2022-10-04T05:19:15;11.90;99.90
4530;DHT22;2277;51.626;7.516;2022-10-04T05:21:44;11.80;99.90
4530;DHT22;2277;51.626;7.516;2022-10-04T05:24:16;11.80;99.90
4530;DHT22;2277;51.626;7.516;2022-10-04T05:26:44;11.80;99.90
4530;DHT22;2277;51.626;7.516;2022-10-04T05:29:17;11.80;99.90
4530;DHT22;2277;51.626;7.516;2022-10-04T05:34:29;11.60;99.90
4530;DHT22;2277;51.626;7.516;2022-10-04T05:42:46;11.40;99.90
4530;DHT22;2277;51.626;7.516;2022-10-04T05:45:26;11.50;99.90
4530;DHT22;2277;51.626;7.516;2022-10-04T05:47:59;11.50;99.90
4530;DHT22;2277;51.626;7.516;2022-10-04T05:50:33;11.60;99.90
4530;DHT22;2277;51.626;7.516;2022-10-04T06:06:55;11.40;99.90
4530;DHT22;2277;51.626;7.516;2022-10-04T06:09:48;11.40;99.90
4530;DHT22;2277;51.626;7.516;2022-10-04T06:19:08;11.60;99.90
4530;DHT22;2277;51.626;7.516;2022-10-04T06:21:27;11.60;99.90
4530;DHT22;2277;51.626;7.516;2022-10-04T06:24:00;11.50;99.90
4530;DHT22;2277;51.626;7.516;2022-10-04T06:26:38;11.50;99.90
4530;DHT22;2277;51.626;7.516;2022-10-04T06:29:13;11.60;99.90
4530;DHT22;2277;51.626;7.516;2022-10-04T06:32:06;11.60;99.90
4530;DHT22;2277;51.626;7.516;2022-10-04T06:43:22;11.80;99.90
4530;DHT22;2277;51.626;7.516;2022-10-04T06:46:10;11.80;99.90
4530;DHT22;2277;51.626;7.516;2022-10-04T06:54:41;11.70;99.90
4530;DHT22;2277;51.626;7.516;2022-10-04T07:02:04;11.60;99.90
4530;DHT22;2277;51.626;7.516;2022-10-04T07:04:55;11.70;99.90
4530;DHT22;2277;51.626;7.516;2022-10-04T07:07:32;11.70;99.90
4530;DHT22;2277;51.626;7.516;2022-10-04T07:11:16;11.80;99.90
4530;DHT22;2277;51.626;7.516;2022-10-04T07:13:18;11.80;99.90
4530;DHT22;2277;51.626;7.516;2022-10-04T07:15:59;11.90;99.90
4530;DHT22;2277;51.626;7.516;2022-10-04T07:21:13;12.30;99.90
4530;DHT22;2277;51.626;7.516;2022-10-04T07:23:59;12.50;99.90
4530;DHT22;2277;51.626;7.516;2022-10-04T07:26:44;12.60;99.90
4530;DHT22;2277;51.626;7.516;2022-10-04T07:29:21;12.70;99.90
4530;DHT22;2277;51.626;7.516;2022-10-04T07:32:13;12.80;99.90
4530;DHT22;2277;51.626;7.516;2022-10-04T07:34:49;13.00;99.90
4530;DHT22;2277;51.626;7.516;2022-10-04T07:37:18;13.20;99.90
4530;DHT22;2277;51.626;7.516;2022-10-04T07:45:11;13.30;99.90
4530;DHT22;2277;51.626;7.516;2022-10-04T07:47:37;13.50;99.90
4530;DHT22;2277;51.626;7.516;2022-10-04T07:50:19;13.60;99.90
4530;DHT22;2277;51.626;7.516;2022-10-04T07:52:50;13.70;99.90
4530;DHT22;2277;51.626;7.516;2022-10-04T08:00:59;14.00;99.90
4530;DHT22;2277;51.626;7.516;2022-10-04T08:03:30;14.10;99.90
4530;DHT22;2277;51.626;7.516;2022-10-04T08:06:24;14.20;99.90
4530;DHT22;2277;51.626;7.516;2022-10-04T08:17:39;14.60;99.90
4530;DHT22;2277;51.626;7.516;2022-10-04T08:20:22;14.70;99.90
4530;DHT22;2277;51.626;7.516;2022-10-04T08:31:02;14.90;99.90
4530;DHT22;2277;51.626;7.516;2022-10-04T08:56:12;16.60;99.90
4530;DHT22;2277;51.626;7.516;2022-10-04T09:15:12;18.20;99.90
4530;DHT22;2277;51.626;7.516;2022-10-04T09:17:47;18.20;99.90
4530;DHT22;2277;51.626;7.516;2022-10-04T09:20:28;18.20;99.90
4530;DHT22;2277;51.626;7.516;2022-10-04T09:29:16;18.90;99.90
4530;DHT22;2277;51.626;7.516;2022-10-04T09:35:01;18.80;99.90
4530;DHT22;2277;51.626;7.516;2022-10-04T09:42:57;19.60;99.90
4530;DHT22;2277;51.626;7.516;2022-10-04T09:51:18;20.10;99.90
4530;DHT22;2277;51.626;7.516;2022-10-04T09:54:13;20.20;99.90
4530;DHT22;2277;51.626;7.516;2022-10-04T09:56:52;20.30;99.90
4530;DHT22;2277;51.626;7.516;2022-10-04T10:07:58;21.10;99.90
4530;DHT22;2277;51.626;7.516;2022-10-04T10:39:08;22.60;99.90
4530;DHT22;2277;51.626;7.516;2022-10-04T10:42:45;22.70;99.90
4530;DHT22;2277;51.626;7.516;2022-10-04T10:45:07;22.80;99.90
4530;DHT22;2277;51.626;7.516;2022-10-04T10:47:59;22.70;99.90
4530;DHT22;2277;51.626;7.516;2022-10-04T10:50:39;22.70;99.90
4530;DHT22;2277;51.626;7.516;2022-10-04T11:04:42;23.10;99.90
4530;DHT22;2277;51.626;7.516;2022-10-04T11:13:14;23.50;99.90
4530;DHT22;2277;51.626;7.516;2022-10-04T11:16:11;23.60;99.80
4530;DHT22;2277;51.626;7.516;2022-10-04T11:24:32;23.80;99.20
4530;DHT22;2277;51.626;7.516;2022-10-04T11:29:52;23.90;99.10
4530;DHT22;2277;51.626;7.516;2022-10-04T11:46:54;24.50;97.50
4530;DHT22;2277;51.626;7.516;2022-10-04T11:57:54;24.50;98.00
4530;DHT22;2277;51.626;7.516;2022-10-04T12:00:25;24.80;98.00
4530;DHT22;2277;51.626;7.516;2022-10-04T12:03:31;24.90;96.90
4530;DHT22;2277;51.626;7.516;2022-10-04T12:32:08;25.20;90.80
4530;DHT22;2277;51.626;7.516;2022-10-04T12:34:37;25.10;90.90
4530;DHT22;2277;51.626;7.516;2022-10-04T12:37:22;25.20;89.30
4530;DHT22;2277;51.626;7.516;2022-10-04T12:45:33;25.30;88.80
4530;DHT22;2277;51.626;7.516;2022-10-04T12:48:12;25.40;91.60
4530;DHT22;2277;51.626;7.516;2022-10-04T12:56:13;25.50;90.30
4530;DHT22;2277;51.626;7.516;2022-10-04T13:09:43;25.80;86.30
4530;DHT22;2277;51.626;7.516;2022-10-04T13:12:09;25.80;85.90
4530;DHT22;2277;51.626;7.516;2022-10-04T13:31:00;25.90;88.30
4530;DHT22;2277;51.626;7.516;2022-10-04T13:33:50;25.90;84.70
4530;DHT22;2277;51.626;7.516;2022-10-04T13:39:19;25.70;82.50
4530;DHT22;2277;51.626;7.516;2022-10-04T13:44:55;25.30;82.90
4530;DHT22;2277;51.626;7.516;2022-10-04T13:47:40;25.30;83.60
4530;DHT22;2277;51.626;7.516;2022-10-04T14:02:07;25.30;80.50
4530;DHT22;2277;51.626;7.516;2022-10-04T14:12:57;25.50;78.80
4530;DHT22;2277;51.626;7.516;2022-10-04T14:24:15;25.70;79.80
4530;DHT22;2277;51.626;7.516;2022-10-04T14:46:22;25.60;78.70
4530;DHT22;2277;51.626;7.516;2022-10-04T14:49:05;25.70;77.60
4530;DHT22;2277;51.626;7.516;2022-10-04T14:52:13;25.60;74.60
4530;DHT22;2277;51.626;7.516;2022-10-04T15:00:21;24.90;78.00
4530;DHT22;2277;51.626;7.516;2022-10-04T15:03:05;24.70;78.20
4530;DHT22;2277;51.626;7.516;2022-10-04T15:11:06;24.40;78.10
4530;DHT22;2277;51.626;7.516;2022-10-04T15:13:47;24.40;78.10
4530;DHT22;2277;51.626;7.516;2022-10-04T15:16:43;24.30;78.10
4530;DHT22;2277;51.626;7.516;2022-10-04T15:19:25;24.20;80.00
4530;DHT22;2277;51.626;7.516;2022-10-04T15:24:42;24.00;78.80
4530;DHT22;2277;51.626;7.516;2022-10-04T15:38:47;23.50;81.00
4530;DHT22;2277;51.626;7.516;2022-10-04T15:51:48;23.10;84.10
4530;DHT22;2277;51.626;7.516;2022-10-04T16:00:19;22.80;86.50
4530;DHT22;2277;51.626;7.516;2022-10-04T16:05:47;22.60;88.40
4530;DHT22;2277;51.626;7.516;2022-10-04T16:08:41;22.50;90.00
4530;DHT22;2277;51.626;7.516;2022-10-04T16:19:05;22.30;93.40
4530;DHT22;2277;51.626;7.516;2022-10-04T16:21:50;22.30;93.30
4530;DHT22;2277;51.626;7.516;2022-10-04T16:29:53;22.00;92.90
4530;DHT22;2277;51.626;7.516;2022-10-04T16:35:29;21.60;94.10
4530;DHT22;2277;51.626;7.516;2022-10-04T16:48:50;21.20;96.20
4530;DHT22;2277;51.626;7.516;2022-10-04T16:56:29;21.10;97.70
4530;DHT22;2277;51.626;7.516;2022-10-04T17:09:06;21.00;99.90
4530;DHT22;2277;51.626;7.516;2022-10-04T17:11:44;21.00;99.90
4530;DHT22;2277;51.626;7.516;2022-10-04T17:14:19;20.90;99.90
4530;DHT22;2277;51.626;7.516;2022-10-04T17:16:57;20.80;99.90
4530;DHT22;2277;51.626;7.516;2022-10-04T17:19:31;20.60;99.90
4530;DHT22;2277;51.626;7.516;2022-10-04T17:22:30;20.50;99.90
4530;DHT22;2277;51.626;7.516;2022-10-04T17:27:45;20.20;99.90
4530;DHT22;2277;51.626;7.516;2022-10-04T17:33:06;20.20;99.90
4530;DHT22;2277;51.626;7.516;2022-10-04T17:42:01;20.10;99.90
4530;DHT22;2277;51.626;7.516;2022-10-04T17:47:11;20.00;99.90
4530;DHT22;2277;51.626;7.516;2022-10-04T17:50:14;19.90;99.90
4530;DHT22;2277;51.626;7.516;2022-10-04T17:53:04;19.80;99.90
4530;DHT22;2277;51.626;7.516;2022-10-04T17:55:55;19.70;99.90
4530;DHT22;2277;51.626;7.516;2022-10-04T17:58:40;19.60;99.90
4530;DHT22;2277;51.626;7.516;2022-10-04T18:01:14;19.60;99.90
4530;DHT22;2277;51.626;7.516;2022-10-04T18:06:41;19.40;99.90
4530;DHT22;2277;51.626;7.516;2022-10-04T18:09:33;19.40;99.90
4530;DHT22;2277;51.626;7.516;2022-10-04T18:15:03;19.20;99.90
4530;DHT22;2277;51.626;7.516;2022-10-04T18:17:41;19.10;99.90
4530;DHT22;2277;51.626;7.516;2022-10-04T18:23:24;18.90;99.90
4530;DHT22;2277;51.626;7.516;2022-10-04T18:25:56;18.90;99.90
4530;DHT22;2277;51.626;7.516;2022-10-04T18:28:22;18.70;99.90
4530;DHT22;2277;51.626;7.516;2022-10-04T18:36:03;18.50;99.90
4530;DHT22;2277;51.626;7.516;2022-10-04T18:38:32;18.50;99.90
4530;DHT22;2277;51.626;7.516;2022-10-04T18:41:01;18.40;99.90
4530;DHT22;2277;51.626;7.516;2022-10-04T18:43:39;18.30;99.90
4530;DHT22;2277;51.626;7.516;2022-10-04T18:48:50;18.20;99.90
4530;DHT22;2277;51.626;7.516;2022-10-04T18:51:24;18.20;99.90
4530;DHT22;2277;51.626;7.516;2022-10-04T18:56:29;18.10;99.90
4530;DHT22;2277;51.626;7.516;2022-10-04T18:59:03;18.00;99.90
4530;DHT22;2277;51.626;7.516;2022-10-04T19:02:04;18.00;99.90
4530;DHT22;2277;51.626;7.516;2022-10-04T19:07:48;17.80;99.90
4530;DHT22;2277;51.626;7.516;2022-10-04T19:10:22;17.70;99.90
4530;DHT22;2277;51.626;7.516;2022-10-04T19:13:21;17.70;99.90
4530;DHT22;2277;51.626;7.516;2022-10-04T19:24:15;17.40;99.90
4530;DHT22;2277;51.626;7.516;2022-10-04T19:26:46;17.40;99.90
4530;DHT22;2277;51.626;7.516;2022-10-04T19:35:04;17.20;99.90
4530;DHT22;2277;51.626;7.516;2022-10-04T19:43:25;16.90;99.90
4530;DHT22;2277;51.626;7.516;2022-10-04T19:48:48;17.00;99.90
4530;DHT22;2277;51.626;7.516;2022-10-04T19:51:35;17.00;99.90
4530;DHT22;2277;51.626;7.516;2022-10-04T19:54:13;16.90;99.90
4530;DHT22;2277;51.626;7.516;2022-10-04T19:56:45;16.90;99.90
4530;DHT22;2277;51.626;7.516;2022-10-04T19:59:33;16.90;99.90
4530;DHT22;2277;51.626;7.516;2022-10-04T20:02:00;16.90;99.90
4530;DHT22;2277;51.626;7.516;2022-10-04T20:04:26;16.90;99.90
4530;DHT22;2277;51.626;7.516;2022-10-04T20:07:24;16.80;99.90
4530;DHT22;2277;51.626;7.516;2022-10-04T20:12:36;16.70;99.90
4530;DHT22;2277;51.626;7.516;2022-10-04T20:17:45;16.70;99.90
4530;DHT22;2277;51.626;7.516;2022-10-04T20:23:05;16.60;99.90
4530;DHT22;2277;51.626;7.516;2022-10-04T20:28:09;16.50;99.90
4530;DHT22;2277;51.626;7.516;2022-10-04T20:30:58;16.50;99.90
4530;DHT22;2277;51.626;7.516;2022-10-04T20:35:59;16.10;99.90
4530;DHT22;2277;51.626;7.516;2022-10-04T20:38:45;16.00;99.90
4530;DHT22;2277;51.626;7.516;2022-10-04T20:41:42;15.90;99.90
4530;DHT22;2277;51.626;7.516;2022-10-04T20:44:41;16.00;99.90
4530;DHT22;2277;51.626;7.516;2022-10-04T20:47:44;16.10;99.90
4530;DHT22;2277;51.626;7.516;2022-10-04T20:52:51;16.30;99.90
4530;DHT22;2277;51.626;7.516;2022-10-04T20:55:33;16.40;99.90
4530;DHT22;2277;51.626;7.516;2022-10-04T21:00:59;16.30;99.90
4530;DHT22;2277;51.626;7.516;2022-10-04T21:03:29;16.40;99.90
4530;DHT22;2277;51.626;7.516;2022-10-04T21:08:27;16.40;99.90
4530;DHT22;2277;51.626;7.516;2022-10-04T21:11:17;16.40;99.90
4530;DHT22;2277;51.626;7.516;2022-10-04T21:19:27;16.40;99.90
4530;DHT22;2277;51.626;7.516;2022-10-04T21:21:53;16.40;99.90
4530;DHT22;2277;51.626;7.516;2022-10-04T21:27:07;16.40;99.90
4530;DHT22;2277;51.626;7.516;2022-10-04T21:29:35;16.40;99.90
4530;DHT22;2277;51.626;7.516;2022-10-04T21:32:01;16.40;99.90
4530;DHT22;2277;51.626;7.516;2022-10-04T21:34:26;16.40;99.90
4530;DHT22;2277;51.626;7.516;2022-10-04T21:36:52;16.40;99.90
4530;DHT22;2277;51.626;7.516;2022-10-04T21:39:18;16.40;99.90
4530;DHT22;2277;51.626;7.516;2022-10-04T21:41:44;16.40;99.90
4530;DHT22;2277;51.626;7.516;2022-10-04T21:44:10;16.40;99.90
4530;DHT22;2277;51.626;7.516;2022-10-04T21:46:35;16.30;99.90
4530;DHT22;2277;51.626;7.516;2022-10-04T21:49:02;16.30;99.90
4530;DHT22;2277;51.626;7.516;2022-10-04T21:51:28;16.30;99.90
4530;DHT22;2277;51.626;7.516;2022-10-04T21:53:57;16.30;99.90
4530;DHT22;2277;51.626;7.516;2022-10-04T21:56:23;16.30;99.90
4530;DHT22;2277;51.626;7.516;2022-10-04T21:58:49;16.20;99.90
4530;DHT22;2277;51.626;7.516;2022-10-04T22:01:15;16.20;99.90
4530;DHT22;2277;51.626;7.516;2022-10-04T22:03:40;16.20;99.90
4530;DHT22;2277;51.626;7.516;2022-10-04T22:06:06;16.10;99.90
4530;DHT22;2277;51.626;7.516;2022-10-04T22:08:31;16.20;99.90
4530;DHT22;2277;51.626;7.516;2022-10-04T22:10:57;16.10;99.90
4530;DHT22;2277;51.626;7.516;2022-10-04T22:13:23;16.10;99.90
4530;DHT22;2277;51.626;7.516;2022-10-04T22:15:48;16.10;99.90
4530;DHT22;2277;51.626;7.516;2022-10-04T22:18:14;16.10;99.90
4530;DHT22;2277;51.626;7.516;2022-10-04T22:20:39;16.10;99.90
4530;DHT22;2277;51.626;7.516;2022-10-04T22:23:12;16.10;99.90
4530;DHT22;2277;51.626;7.516;2022-10-04T22:25:40;16.00;99.90
4530;DHT22;2277;51.626;7.516;2022-10-04T22:28:20;16.00;99.90
4530;DHT22;2277;51.626;7.516;2022-10-04T22:30:46;15.90;99.90
4530;DHT22;2277;51.626;7.516;2022-10-04T22:33:33;15.90;99.90
4530;DHT22;2277;51.626;7.516;2022-10-04T22:38:37;15.80;99.90
4530;DHT22;2277;51.626;7.516;2022-10-04T22:41:10;15.80;99.90
4530;DHT22;2277;51.626;7.516;2022-10-04T22:43:37;15.70;99.90
4530;DHT22;2277;51.626;7.516;2022-10-04T22:46:02;15.70;99.90
4530;DHT22;2277;51.626;7.516;2022-10-04T22:48:28;15.70;99.90
4530;DHT22;2277;51.626;7.516;2022-10-04T22:50:54;15.80;99.90
4530;DHT22;2277;51.626;7.516;2022-10-04T22:53:21;15.70;99.90
4530;DHT22;2277;51.626;7.516;2022-10-04T22:55:48;15.70;99.90
4530;DHT22;2277;51.626;7.516;2022-10-04T22:58:15;15.70;99.90
4530;DHT22;2277;51.626;7.516;2022-10-04T23:00:42;15.60;99.90
4530;DHT22;2277;51.626;7.516;2022-10-04T23:03:29;15.60;99.90
4530;DHT22;2277;51.626;7.516;2022-10-04T23:05:59;15.50;99.90
4530;DHT22;2277;51.626;7.516;2022-10-04T23:08:25;15.50;99.90
4530;DHT22;2277;51.626;7.516;2022-10-04T23:10:57;15.50;99.90
4530;DHT22;2277;51.626;7.516;2022-10-04T23:13:25;15.50;99.90
4530;DHT22;2277;51.626;7.516;2022-10-04T23:15:51;15.50;99.90
4530;DHT22;2277;51.626;7.516;2022-10-04T23:18:19;15.40;99.90
4530;DHT22;2277;51.626;7.516;2022-10-04T23:20:52;15.40;99.90
4530;DHT22;2277;51.626;7.516;2022-10-04T23:23:18;15.40;99.90
4530;DHT22;2277;51.626;7.516;2022-10-04T23:25:47;15.50;99.90
4530;DHT22;2277;51.626;7.516;2022-10-04T23:28:16;15.50;99.90
4530;DHT22;2277;51.626;7.516;2022-10-04T23:30:42;15.60;99.90
4530;DHT22;2277;51.626;7.516;2022-10-04T23:33:19;15.50;99.90
4530;DHT22;2277;51.626;7.516;2022-10-04T23:35:47;15.50;99.90
4530;DHT22;2277;51.626;7.516;2022-10-04T23:38:18;15.50;99.90
4530;DHT22;2277;51.626;7.516;2022-10-04T23:40:45;15.60;99.90
4530;DHT22;2277;51.626;7.516;2022-10-04T23:43:19;15.70;99.90
4530;DHT22;2277;51.626;7.516;2022-10-04T23:45:45;15.60;99.90
4530;DHT22;2277;51.626;7.516;2022-10-04T23:48:17;15.70;99.90
4530;DHT22;2277;51.626;7.516;2022-10-04T23:50:43;15.70;99.90
4530;DHT22;2277;51.626;7.516;2022-10-04T23:53:16;15.50;99.90
4530;DHT22;2277;51.626;7.516;2022-10-04T23:55:44;15.60;99.90
4530;DHT22;2277;51.626;7.516;2022-10-04T23:58:19;15.70;99.90
